Nova Olimpia, Brazil
Current Conditions -  °F | °C
As of 2:00 PM on Monday 24 Nov 2014 (Local Time) from SBMG Reporting Station
Broken Clouds Broken Clouds  
Wind Chill: 81°   Ceiling: 3500
Heat Index: 84°   Visibility: 6mi
Dew Point: 70°   Wind: 8mph
Humidity: 70%   Direction: 40°NE
Pressure: 29.94"   Gusts: NA
Location:  23.47°S, 53.09°W
Report Text: SBMG 241600Z 04007KT 360V070 9999 BKN035 27/21 Q1014
Loading
Personal Weather Stations






























Interactive Weather Map New forecast layout! Learn more

10-Day Weather Forecast

Advertisements
Track Severe Weather on mobile